createdAt,value
2018-02-24T00:02:24.134Z,46.20
2018-02-24T00:04:51.924Z,46.30
2018-02-24T00:07:19.692Z,46.20
2018-02-24T00:09:47.457Z,46.20
2018-02-24T00:12:15.221Z,46.20
2018-02-24T00:14:43.058Z,46.30
2018-02-24T00:17:10.854Z,46.40
2018-02-24T00:19:38.640Z,46.40
2018-02-24T00:22:06.461Z,46.30
2018-02-24T00:24:34.245Z,46.50
2018-02-24T00:27:02.038Z,46.50
2018-02-24T00:29:29.819Z,46.60
2018-02-24T00:31:58.360Z,46.70
2018-02-24T00:34:26.181Z,46.70
2018-02-24T00:36:54.721Z,46.70
2018-02-24T00:39:22.510Z,46.70
2018-02-24T00:41:51.064Z,46.90
2018-02-24T00:44:18.849Z,46.90
2018-02-24T00:46:46.645Z,46.80
2018-02-24T00:49:14.505Z,46.70
2018-02-24T00:51:43.114Z,46.70
2018-02-24T00:54:10.957Z,46.70
2018-02-24T00:56:39.576Z,46.60
2018-02-24T00:59:07.418Z,46.50
2018-02-24T01:01:35.272Z,46.10
2018-02-24T01:04:03.082Z,46.00
2018-02-24T01:06:30.910Z,46.00
2018-02-24T01:08:58.769Z,45.90
2018-02-24T01:11:26.580Z,45.90
2018-02-24T01:13:54.353Z,45.80
2018-02-24T01:16:22.142Z,45.80
2018-02-24T01:18:49.972Z,45.70
2018-02-24T01:21:17.786Z,45.80
2018-02-24T01:23:45.557Z,45.70
2018-02-24T01:26:13.778Z,45.40
2018-02-24T01:28:41.566Z,45.30
2018-02-24T01:31:09.392Z,45.20
2018-02-24T01:33:37.180Z,44.80
2018-02-24T01:36:04.969Z,44.60
2018-02-24T01:38:32.736Z,44.80
2018-02-24T01:41:00.548Z,44.80
2018-02-24T01:43:28.313Z,44.70
2018-02-24T01:45:56.099Z,44.80
2018-02-24T01:48:23.878Z,44.50
2018-02-24T01:50:51.645Z,44.50
2018-02-24T01:53:19.446Z,44.60
2018-02-24T01:55:47.251Z,44.50
2018-02-24T01:58:15.030Z,44.60
2018-02-24T02:00:42.824Z,43.90
2018-02-24T02:03:10.595Z,44.10
2018-02-24T02:05:38.364Z,43.60
2018-02-24T02:08:06.214Z,43.70
2018-02-24T02:10:34.177Z,43.50
2018-02-24T02:13:02.726Z,43.40
2018-02-24T02:15:30.517Z,43.40
2018-02-24T02:17:58.309Z,43.40
2018-02-24T02:20:26.848Z,42.00
2018-02-24T02:22:54.633Z,42.00
2018-02-24T02:25:23.187Z,42.60
2018-02-24T02:27:50.971Z,42.60
2018-02-24T02:30:18.746Z,42.80
2018-02-24T02:32:47.297Z,41.80
2018-02-24T02:35:15.102Z,41.70
2018-02-24T02:37:43.667Z,41.40
2018-02-24T02:40:12.216Z,41.70
2018-02-24T02:42:40.000Z,41.70
2018-02-24T02:45:07.805Z,40.50
2018-02-24T02:47:35.576Z,40.60
2018-02-24T02:50:03.508Z,40.50
2018-02-24T02:52:31.307Z,41.10
2018-02-24T02:54:59.098Z,41.70
2018-02-24T02:57:26.909Z,41.20
2018-02-24T02:59:55.454Z,40.70
2018-02-24T03:02:23.234Z,40.70
2018-02-24T03:04:51.022Z,40.70
2018-02-24T03:07:19.557Z,41.50
2018-02-24T03:09:47.329Z,41.50
2018-02-24T03:12:15.130Z,41.40
2018-02-24T03:14:43.018Z,41.20
2018-02-24T03:17:10.837Z,41.50
2018-02-24T03:19:38.609Z,40.80
2018-02-24T03:22:06.385Z,40.90
2018-02-24T03:24:34.245Z,41.10
2018-02-24T03:27:02.023Z,40.90
2018-02-24T03:29:29.796Z,41.20
2018-02-24T03:31:57.589Z,41.30
2018-02-24T03:34:25.365Z,40.90
2018-02-24T03:36:53.165Z,41.00
2018-02-24T03:39:20.949Z,41.00
2018-02-24T03:41:48.790Z,40.50
2018-02-24T03:44:16.573Z,40.70
2018-02-24T03:46:44.417Z,41.20
2018-02-24T03:49:12.204Z,41.00
2018-02-24T03:51:39.968Z,40.70
2018-02-24T03:54:07.785Z,41.10
2018-02-24T03:56:35.574Z,40.80
2018-02-24T03:59:03.442Z,40.30
2018-02-24T04:01:31.303Z,41.00
2018-02-24T04:03:59.143Z,40.90
2018-02-24T04:06:26.924Z,40.60
2018-02-24T04:08:54.726Z,41.00
2018-02-24T04:11:23.357Z,40.70
2018-02-24T04:13:51.166Z,40.70
2018-02-24T04:16:19.013Z,40.60
2018-02-24T04:18:46.789Z,40.60
2018-02-24T04:21:14.571Z,40.40
2018-02-24T04:23:43.131Z,40.70
2018-02-24T04:26:10.917Z,40.60
2018-02-24T04:28:39.517Z,40.60
2018-02-24T04:31:07.305Z,40.50
2018-02-24T04:33:35.106Z,40.90
2018-02-24T04:36:02.914Z,40.80
2018-02-24T04:38:30.724Z,40.50
2018-02-24T04:40:59.019Z,41.00
2018-02-24T04:43:26.791Z,41.50
2018-02-24T04:45:54.588Z,40.40
2018-02-24T04:48:22.409Z,41.10
2018-02-24T04:50:50.189Z,41.10
2018-02-24T04:53:18.755Z,41.20
2018-02-24T04:55:46.581Z,41.20
2018-02-24T04:58:14.505Z,41.10
2018-02-24T05:00:43.087Z,40.70
2018-02-24T05:03:11.637Z,41.20
2018-02-24T05:05:39.421Z,41.20
2018-02-24T05:08:07.209Z,41.20
2018-02-24T05:10:35.757Z,40.80
2018-02-24T05:13:03.549Z,40.70
2018-02-24T05:15:31.306Z,41.20
2018-02-24T05:17:59.102Z,41.30
2018-02-24T05:20:26.927Z,41.30
2018-02-24T05:22:54.728Z,41.40
2018-02-24T05:25:22.597Z,41.40
2018-02-24T05:27:50.375Z,41.50
2018-02-24T05:30:18.178Z,41.50
2018-02-24T05:32:45.959Z,41.50
2018-02-24T05:35:13.749Z,41.50
2018-02-24T05:37:41.565Z,41.50
2018-02-24T05:40:09.348Z,41.70
2018-02-24T05:42:37.119Z,41.20
2018-02-24T05:45:05.693Z,41.30
2018-02-24T05:47:33.511Z,41.10
2018-02-24T05:50:01.293Z,41.50
2018-02-24T05:52:29.073Z,41.30
2018-02-24T05:54:56.861Z,41.10
2018-02-24T05:57:24.656Z,41.20
2018-02-24T05:59:52.439Z,41.10
2018-02-24T06:02:20.229Z,41.80
2018-02-24T06:04:48.001Z,41.10
2018-02-24T06:07:15.803Z,41.00
2018-02-24T06:09:43.575Z,41.20
2018-02-24T06:12:11.362Z,41.10
2018-02-24T06:14:39.137Z,41.10
2018-02-24T06:17:06.921Z,41.40
2018-02-24T06:19:34.737Z,41.40
2018-02-24T06:22:02.534Z,41.40
2018-02-24T06:24:30.332Z,41.20
2018-02-24T06:26:58.989Z,41.50
2018-02-24T06:29:26.820Z,41.50
2018-02-24T06:31:54.654Z,41.20
2018-02-24T06:34:23.245Z,41.40
2018-02-24T06:36:51.081Z,41.40
2018-02-24T06:39:18.928Z,41.70
2018-02-24T06:41:46.706Z,41.80
2018-02-24T06:44:14.510Z,41.80
2018-02-24T06:46:42.290Z,41.70
2018-02-24T06:49:10.083Z,41.70
2018-02-24T06:51:37.865Z,41.80
2018-02-24T06:54:05.649Z,41.60
2018-02-24T06:56:33.437Z,41.70
2018-02-24T06:59:01.229Z,41.50
2018-02-24T07:01:28.999Z,41.50
2018-02-24T07:03:56.789Z,41.20
2018-02-24T07:06:24.594Z,41.70
2018-02-24T07:08:52.374Z,41.70
2018-02-24T07:11:20.162Z,41.70
2018-02-24T07:13:47.953Z,41.80
2018-02-24T07:16:15.731Z,41.80
2018-02-24T07:18:43.525Z,41.80
2018-02-24T07:21:11.321Z,41.80
2018-02-24T07:23:39.149Z,42.00
2018-02-24T07:26:06.953Z,42.00
2018-02-24T07:28:34.754Z,42.00
2018-02-24T07:31:03.302Z,42.40
2018-02-24T07:33:31.091Z,42.10
2018-02-24T07:35:58.870Z,42.00
2018-02-24T07:38:26.650Z,42.10
2018-02-24T07:40:54.461Z,42.20
2018-02-24T07:43:22.292Z,42.20
2018-02-24T07:45:50.085Z,42.20
2018-02-24T07:48:22.357Z,42.20
2018-02-24T07:50:50.160Z,42.30
2018-02-24T07:53:18.697Z,42.30
2018-02-24T07:55:46.501Z,42.30
2018-02-24T07:58:14.282Z,42.30
2018-02-24T08:00:42.860Z,42.40
2018-02-24T08:03:11.481Z,42.40
2018-02-24T08:05:39.258Z,42.50
2018-02-24T08:08:07.798Z,42.30
2018-02-24T08:10:35.573Z,42.30
2018-02-24T08:13:03.354Z,42.20
2018-02-24T08:15:31.136Z,42.20
2018-02-24T08:17:58.915Z,42.30
2018-02-24T08:20:26.693Z,42.30
2018-02-24T08:22:54.461Z,42.30
2018-02-24T08:25:23.061Z,42.30
2018-02-24T08:27:50.873Z,42.20
2018-02-24T08:30:18.680Z,42.20
2018-02-24T08:32:47.233Z,42.20
2018-02-24T08:35:15.053Z,42.20
2018-02-24T08:37:42.841Z,42.20
2018-02-24T08:40:11.295Z,42.10
2018-02-24T08:42:39.078Z,42.00
2018-02-24T08:45:06.962Z,41.70
2018-02-24T08:47:34.750Z,41.70
2018-02-24T08:50:02.525Z,41.20
2018-02-24T08:52:30.367Z,41.20
2018-02-24T08:54:58.157Z,41.00
2018-02-24T08:57:26.717Z,40.80
2018-02-24T08:59:54.493Z,40.80
2018-02-24T09:02:22.281Z,40.60
2018-02-24T09:04:50.815Z,40.00
2018-02-24T09:07:18.612Z,40.00
2018-02-24T09:09:46.398Z,39.60
2018-02-24T09:12:14.197Z,39.30
2018-02-24T09:14:41.985Z,39.20
2018-02-24T09:17:09.786Z,38.80
2018-02-24T09:19:37.569Z,38.40
2018-02-24T09:22:05.373Z,38.00
2018-02-24T09:24:33.137Z,37.50
2018-02-24T09:27:00.947Z,38.10
2018-02-24T09:29:28.761Z,37.20
2018-02-24T09:31:56.568Z,37.20
2018-02-24T09:34:24.384Z,35.40
2018-02-24T09:36:53.142Z,35.20
2018-02-24T09:39:20.926Z,35.20
2018-02-24T09:44:50.807Z,34.00
2018-02-24T09:47:47.330Z,33.90
2018-02-24T09:59:17.590Z,32.10
2018-02-24T10:02:03.555Z,32.40
2018-02-24T10:19:08.308Z,31.60
2018-02-24T10:58:52.276Z,35.00
2018-02-24T11:27:51.869Z,38.10
2018-02-24T11:30:19.750Z,38.30
2018-02-24T11:32:47.518Z,38.50
2018-02-24T11:35:15.363Z,38.30
2018-02-24T11:37:43.126Z,38.50
2018-02-24T11:40:10.887Z,38.70
2018-02-24T11:42:38.715Z,38.90
2018-02-24T11:45:06.514Z,39.00
2018-02-24T11:47:34.314Z,38.80
2018-02-24T11:50:02.089Z,39.10
2018-02-24T11:52:30.629Z,38.80
2018-02-24T11:54:58.417Z,38.80
2018-02-24T11:57:26.246Z,38.60
2018-02-24T11:59:54.022Z,38.70
2018-02-24T12:02:21.804Z,38.40
2018-02-24T12:04:49.578Z,38.40
2018-02-24T12:07:17.349Z,38.10
2018-02-24T12:09:45.233Z,38.60
2018-02-24T12:12:13.074Z,37.90
2018-02-24T12:14:40.877Z,38.30
2018-02-24T12:17:08.677Z,38.60
2018-02-24T12:19:36.438Z,38.60
2018-02-24T12:22:04.224Z,38.60
2018-02-24T12:24:32.050Z,38.40
2018-02-24T12:26:59.824Z,37.90
2018-02-24T12:29:27.602Z,38.50
2018-02-24T12:31:55.369Z,38.60
2018-02-24T12:34:23.164Z,39.00
2018-02-24T12:36:51.701Z,38.60
2018-02-24T12:39:19.523Z,38.60
2018-02-24T12:41:48.050Z,38.90
2018-02-24T12:44:15.826Z,38.90
2018-02-24T12:46:43.725Z,39.20
2018-02-24T12:49:11.480Z,39.10
2018-02-24T12:51:39.245Z,39.60
2018-02-24T12:54:07.077Z,39.30
2018-02-24T12:56:34.838Z,39.80
2018-02-24T12:59:02.638Z,39.10
2018-02-24T13:01:30.422Z,39.20
2018-02-24T13:03:58.973Z,39.70
2018-02-24T13:06:26.742Z,39.60
2018-02-24T13:08:54.514Z,38.70
2018-02-24T13:11:22.278Z,39.70
2018-02-24T13:13:50.816Z,39.70
2018-02-24T13:16:18.582Z,39.70
2018-02-24T13:18:46.350Z,39.90
2018-02-24T13:21:14.122Z,39.50
2018-02-24T13:23:41.907Z,39.10
2018-02-24T13:26:09.678Z,39.00
2018-02-24T13:28:38.217Z,39.20
2018-02-24T13:31:06.062Z,39.20
2018-02-24T13:33:33.889Z,39.10
2018-02-24T13:36:01.761Z,39.30
2018-02-24T13:38:30.362Z,39.50
2018-02-24T13:40:58.996Z,39.40
2018-02-24T13:43:26.793Z,39.40
2018-02-24T13:45:55.326Z,39.40
2018-02-24T13:48:23.182Z,39.40
2018-02-24T13:50:50.939Z,39.40
2018-02-24T13:53:18.709Z,38.50
2018-02-24T13:55:46.524Z,39.10
2018-02-24T13:58:14.293Z,39.60
2018-02-24T14:00:42.052Z,39.30
2018-02-24T14:03:09.820Z,39.90
2018-02-24T14:05:37.589Z,40.60
2018-02-24T14:08:06.141Z,41.70
2018-02-24T14:10:33.917Z,41.70
2018-02-24T14:13:01.686Z,42.30
2018-02-24T14:15:29.495Z,42.60
2018-02-24T14:17:57.277Z,43.60
2018-02-24T14:20:25.052Z,43.60
2018-02-24T14:22:52.829Z,44.00
2018-02-24T14:25:20.597Z,44.30
2018-02-24T14:27:48.389Z,44.10
2018-02-24T14:30:16.961Z,44.40
2018-02-24T14:32:44.799Z,44.40
2018-02-24T14:35:12.600Z,44.70
2018-02-24T14:37:41.190Z,44.80
2018-02-24T14:40:09.830Z,45.20
2018-02-24T14:42:37.606Z,45.00
2018-02-24T14:45:05.477Z,46.00
2018-02-24T14:47:33.257Z,45.60
2018-02-24T14:50:01.031Z,45.70
2018-02-24T14:52:29.591Z,45.40
2018-02-24T14:54:57.392Z,45.30
2018-02-24T14:57:25.153Z,45.60
2018-02-24T14:59:53.717Z,45.50
2018-02-24T15:02:21.550Z,45.70
2018-02-24T15:04:49.323Z,45.70
2018-02-24T15:07:17.162Z,45.60
2018-02-24T15:09:44.958Z,45.60
2018-02-24T15:12:12.747Z,46.00
2018-02-24T15:14:41.523Z,45.50
2018-02-24T15:17:10.150Z,45.60
2018-02-24T15:19:37.995Z,45.60
2018-02-24T15:22:06.606Z,45.60
2018-02-24T15:24:34.449Z,45.60
2018-02-24T15:27:02.224Z,45.30
2018-02-24T15:29:29.994Z,45.20
2018-02-24T15:31:57.786Z,45.30
2018-02-24T15:34:25.585Z,45.50
2018-02-24T15:36:54.195Z,45.30
2018-02-24T15:39:21.981Z,45.10
2018-02-24T15:41:49.768Z,45.00
2018-02-24T15:44:18.347Z,45.50
2018-02-24T15:46:47.284Z,45.50
2018-02-24T15:49:15.066Z,45.60
2018-02-24T16:55:46.177Z,46.20
2018-02-24T16:58:13.969Z,46.70
2018-02-24T17:00:41.763Z,46.80
2018-02-24T17:09:36.822Z,46.60
2018-02-24T17:12:04.667Z,46.80
2018-02-24T17:14:32.477Z,46.80
2018-02-24T17:17:00.387Z,47.10
2018-02-24T17:19:28.185Z,46.70
2018-02-24T17:21:55.950Z,46.80
2018-02-24T17:24:23.715Z,46.90
2018-02-24T17:26:52.988Z,46.90
2018-02-24T17:29:20.797Z,46.70
2018-02-24T17:31:48.602Z,46.70
2018-02-24T17:34:17.142Z,46.10
2018-02-24T17:36:44.910Z,46.20
2018-02-24T17:39:12.690Z,46.80
2018-02-24T17:41:41.235Z,47.30
2018-02-24T17:44:09.045Z,47.30
2018-02-24T17:46:37.580Z,47.50
2018-02-24T17:49:05.356Z,47.50
2018-02-24T17:51:33.125Z,47.40
2018-02-24T17:54:00.886Z,47.40
2018-02-24T17:56:28.653Z,47.20
2018-02-24T17:58:56.443Z,47.40
2018-02-24T18:01:24.995Z,47.70
2018-02-24T18:03:52.840Z,47.70
2018-02-24T18:06:20.614Z,47.70
2018-02-24T18:08:49.189Z,48.30
2018-02-24T18:11:16.993Z,48.00
2018-02-24T18:13:44.783Z,48.00
2018-02-24T18:16:12.568Z,48.10
2018-02-24T18:18:40.333Z,48.20
2018-02-24T18:21:08.118Z,48.20
2018-02-24T18:23:35.894Z,48.20
2018-02-24T18:26:03.675Z,48.30
2018-02-24T18:28:31.445Z,48.10
2018-02-24T18:30:59.225Z,48.10
2018-02-24T18:33:27.769Z,48.20
2018-02-24T18:35:55.549Z,48.10
2018-02-24T18:38:23.325Z,48.20
2018-02-24T18:40:51.874Z,48.20
2018-02-24T18:43:19.738Z,48.20
2018-02-24T18:45:47.562Z,48.20
2018-02-24T18:48:15.410Z,48.50
2018-02-24T18:50:43.958Z,48.80
2018-02-24T18:53:11.791Z,48.80
2018-02-24T18:55:39.574Z,48.70
2018-02-24T18:58:07.345Z,48.60
2018-02-24T19:00:35.126Z,48.70
2018-02-24T19:03:02.909Z,48.60
2018-02-24T19:05:31.554Z,48.60
2018-02-24T19:07:59.502Z,48.60
2018-02-24T19:10:27.345Z,48.90
2018-02-24T19:12:55.893Z,49.20
2018-02-24T19:15:23.689Z,49.20
2018-02-24T19:17:52.281Z,49.40
2018-02-24T19:20:20.088Z,49.50
2018-02-24T19:22:47.954Z,49.60
2018-02-24T19:25:15.823Z,49.70
2018-02-24T19:27:43.629Z,49.70
2018-02-24T19:30:11.492Z,49.70
2018-02-24T19:32:40.027Z,49.80
2018-02-24T19:35:07.801Z,49.70
2018-02-24T19:37:35.569Z,49.70
2018-02-24T19:40:03.357Z,49.70
2018-02-24T19:42:32.726Z,49.50
2018-02-24T19:45:01.341Z,49.40
2018-02-24T19:47:29.168Z,49.40
2018-02-24T19:49:56.979Z,49.50
2018-02-24T19:52:25.525Z,49.50
2018-02-24T19:54:53.321Z,49.50
2018-02-24T19:57:21.866Z,50.10
2018-02-24T19:59:49.642Z,49.50
2018-02-24T20:02:17.425Z,49.40
2018-02-24T20:04:45.967Z,49.40
2018-02-24T20:07:13.741Z,49.40
2018-02-24T20:09:41.504Z,49.50
2018-02-24T20:12:09.293Z,49.50
2018-02-24T20:14:37.082Z,49.40
2018-02-24T20:17:05.646Z,49.60
2018-02-24T20:19:34.198Z,49.60
2018-02-24T20:22:01.998Z,49.50
2018-02-24T20:24:30.555Z,49.60
2018-02-24T20:26:58.346Z,49.60
2018-02-24T20:29:26.963Z,49.70
2018-02-24T20:31:54.752Z,49.60
2018-02-24T20:34:22.554Z,49.70
2018-02-24T20:36:51.100Z,49.60
2018-02-24T20:39:18.869Z,49.60
2018-02-24T20:41:46.661Z,49.60
2018-02-24T20:44:14.510Z,49.50
2018-02-24T20:46:43.474Z,49.50
2018-02-24T20:49:11.314Z,49.60
2018-02-24T20:51:39.107Z,49.60
2018-02-24T20:54:06.889Z,49.60
2018-02-24T20:56:34.710Z,49.60
2018-02-24T20:59:02.493Z,49.60
2018-02-24T21:01:30.334Z,49.60
2018-02-24T21:03:58.958Z,49.60
2018-02-24T21:06:26.827Z,49.60
2018-02-24T21:08:54.638Z,49.50
2018-02-24T21:11:23.210Z,49.50
2018-02-24T21:13:50.993Z,49.50
2018-02-24T21:16:19.565Z,49.50
2018-02-24T21:18:47.372Z,49.50
2018-02-24T21:21:15.192Z,49.50
2018-02-24T21:23:44.553Z,49.40
2018-02-24T21:26:13.135Z,49.40
2018-02-24T21:31:15.736Z,49.50
2018-02-24T21:33:43.548Z,49.40
2018-02-24T21:36:11.419Z,49.20
2018-02-24T21:38:53.933Z,49.30
2018-02-24T21:41:21.718Z,49.30
2018-02-24T21:43:50.217Z,49.10
2018-02-24T21:46:18.021Z,49.10
2018-02-24T21:48:45.804Z,49.00
2018-02-24T23:56:24.013Z,48.30
2018-02-24T23:58:51.826Z,48.30
